Haines Airport Haines US
ICAO: PAHN
IATA:
Category: Medium
Scheduled Services:

Elevation: 15 ft
TransAlt. 18000 ft.

Airport Communications:
ASOS:135.75
ANCHORAGE CNTR:132.3
CTAF:122.9
JUNEAU RDO:122.6
TWEB:24.5

PAHN Zoom In..

Runways:

(A) RW 08 length 4000 ft width 100 ft
---- / hdg 86

(B) RW 26 length 4000 ft width 100 ft
---- / hdg 266

Location; PAHN
Day. 16 / Time. 18.16 Zulu
* Altimeter: 29.98
* Temperature: 13° c. 55.4°f.
* Wind from: 080° Speed 09 kn.
Dewpoint: 10° c.
Visibility: 10 Statute Miles.
Clouds: Scattered 1400 ft.
Clouds: Overcast 6000 ft.

PAHN 161816Z AUTO 08009KT 10SM SCT014 OVC060 13/10 A2998 RMK AO2 T01280100 TSNO


Wind From 080°
Speed 09 kn.

 
 
jpsmedia.com for Web Design worldairports.se 2018   terms of use